CheckWX is a tool to help pilots better visualize weather data.  It is not intended as a substitute for an official pre-flight weather briefing.

16:57:48 UTC

KBFL TAF
Meadows Field Airport
Bakersfield, California, USA
KBFL 181120Z 1812/1912 VRB04KT P6SM SKC FM182200 32010KT P6SM SKC FM190300 35006KT P6SM SKC

Jun-18@
12:00 UTC

Jun-18 @ 12:00 UTC

Jun-18@
22:00 UTC

Jun-18 @ 22:00 UTC

KBFL 181120Z 1812/1912 VRB04KT P6SM SKC
Wind
  • Variable at 4 KTS
Cloud Levels
  • Clear skies

Jun-18@
22:00 UTC

Jun-18 @ 22:00 UTC

Jun-19@
03:00 UTC

Jun-19 @ 03:00 UTC

FM182200 32010KT P6SM SKC

From

From Standard forecast or significant change

Wind
  • 320° at 10 KTS
Cloud Levels
  • Clear skies

Jun-19@
03:00 UTC

Jun-19 @ 03:00 UTC

Jun-19@
12:00 UTC

Jun-19 @ 12:00 UTC

FM190300 35006KT P6SM SKC

From

From Standard forecast or significant change

Wind
  • 350° at 6 KTS
Cloud Levels
  • Clear skies